createdAt,value
2018-07-05T00:00:19.731Z,100739.20
2018-07-05T00:02:45.794Z,100747.00
2018-07-05T00:05:11.763Z,100744.50
2018-07-05T00:07:37.768Z,100742.98
2018-07-05T00:10:03.737Z,100737.35
2018-07-05T00:12:29.838Z,100743.33
2018-07-05T00:14:55.843Z,100748.48
2018-07-05T00:17:21.816Z,100739.66
2018-07-05T00:19:47.886Z,100735.52
2018-07-05T00:22:13.869Z,100727.55
2018-07-05T00:24:39.853Z,100726.43
2018-07-05T00:27:05.824Z,100728.58
2018-07-05T00:29:31.828Z,100724.43
2018-07-05T00:31:57.811Z,100717.30
2018-07-05T00:34:23.812Z,100723.62
2018-07-05T00:36:49.876Z,100727.59
2018-07-05T00:39:15.843Z,100719.13
2018-07-05T00:41:41.832Z,100721.31
2018-07-05T00:44:07.805Z,100719.33
2018-07-05T00:46:33.800Z,100719.48
2018-07-05T00:48:59.831Z,100712.84
2018-07-05T00:51:25.780Z,100711.98
2018-07-05T00:53:51.821Z,100716.98
2018-07-05T00:56:17.789Z,100717.14
2018-07-05T00:58:43.795Z,100724.44
2018-07-05T01:01:09.752Z,100727.95
2018-07-05T01:03:35.739Z,100727.75
2018-07-05T01:06:01.705Z,100716.00
2018-07-05T01:08:27.730Z,100720.34
2018-07-05T01:10:53.703Z,100718.47
2018-07-05T01:13:19.696Z,100722.96
2018-07-05T01:15:45.686Z,100727.13
2018-07-05T01:18:11.633Z,100733.58
2018-07-05T01:20:37.591Z,100728.93
2018-07-05T01:23:03.549Z,100737.08
2018-07-05T01:25:29.531Z,100734.23
2018-07-05T01:27:55.502Z,100744.70
2018-07-05T01:30:21.482Z,100739.55
2018-07-05T01:32:47.437Z,100734.94
2018-07-05T01:35:13.413Z,100733.26
2018-07-05T01:37:39.382Z,100731.42
2018-07-05T01:40:05.345Z,100727.13
2018-07-05T01:42:31.353Z,100727.80
2018-07-05T01:44:57.312Z,100727.60
2018-07-05T01:47:23.296Z,100722.80
2018-07-05T01:49:49.290Z,100725.30
2018-07-05T01:52:15.286Z,100723.81
2018-07-05T01:54:41.252Z,100716.82
2018-07-05T01:57:07.241Z,100726.13
2018-07-05T01:59:33.209Z,100722.64
2018-07-05T02:01:59.209Z,100720.34
2018-07-05T02:04:25.182Z,100720.15
2018-07-05T02:06:51.154Z,100719.13
2018-07-05T02:09:17.164Z,100721.98
2018-07-05T02:11:43.130Z,100723.31
2018-07-05T02:14:09.110Z,100724.98
2018-07-05T02:16:35.093Z,100728.81
2018-07-05T02:19:01.074Z,100729.13
2018-07-05T02:21:27.082Z,100722.64
2018-07-05T02:23:53.053Z,100725.14
2018-07-05T02:26:19.079Z,100723.66
2018-07-05T02:28:45.038Z,100720.97
2018-07-05T02:31:11.013Z,100723.97
2018-07-05T02:33:36.988Z,100724.16
2018-07-05T02:36:02.982Z,100717.65
2018-07-05T02:38:28.959Z,100719.17
2018-07-05T02:40:54.949Z,100719.33
2018-07-05T02:43:20.968Z,100709.88
2018-07-05T02:45:46.936Z,100714.21
2018-07-05T02:48:12.901Z,100713.20
2018-07-05T02:50:38.880Z,100711.55
2018-07-05T02:53:04.866Z,100704.11
2018-07-05T02:55:30.826Z,100707.73
2018-07-05T02:57:56.810Z,100707.89
2018-07-05T03:00:22.785Z,100705.04
2018-07-05T03:02:48.790Z,100704.05
2018-07-05T03:05:15.352Z,100697.89
2018-07-05T03:07:41.353Z,100700.44
2018-07-05T03:10:07.328Z,100704.06
2018-07-05T03:12:33.350Z,100701.91
2018-07-05T03:14:59.308Z,100707.38
2018-07-05T03:17:25.293Z,100714.02
2018-07-05T03:19:51.293Z,100706.41
2018-07-05T03:22:17.270Z,100697.43
2018-07-05T03:24:43.265Z,100696.14
2018-07-05T03:27:09.237Z,100693.80
2018-07-05T03:29:35.186Z,100687.36
2018-07-05T03:32:01.160Z,100694.31
2018-07-05T03:34:27.141Z,100695.33
2018-07-05T03:36:53.145Z,100701.09
2018-07-05T03:39:19.117Z,100701.45
2018-07-05T03:41:45.121Z,100702.59
2018-07-05T03:44:11.073Z,100700.23
2018-07-05T03:46:37.083Z,100703.41
2018-07-05T03:49:03.091Z,100710.55
2018-07-05T03:51:29.069Z,100711.20
2018-07-05T03:53:55.047Z,100724.64
2018-07-05T03:56:21.032Z,100729.13
2018-07-05T03:58:47.019Z,100729.79
2018-07-05T04:01:12.999Z,100731.11
2018-07-05T04:03:39.003Z,100729.95
2018-07-05T04:06:05.004Z,100726.00
2018-07-05T04:08:30.992Z,100726.31
2018-07-05T04:10:56.975Z,100727.64
2018-07-05T04:13:22.988Z,100726.31
2018-07-05T04:15:49.003Z,100728.45
2018-07-05T04:18:14.951Z,100730.92
2018-07-05T04:20:41.075Z,100733.10
2018-07-05T04:23:07.026Z,100736.23
2018-07-05T04:25:32.997Z,100733.22
2018-07-05T04:27:58.956Z,100727.80
2018-07-05T04:30:24.926Z,100719.02
2018-07-05T04:32:50.920Z,100717.84
2018-07-05T04:35:16.936Z,100712.88
2018-07-05T04:37:42.922Z,100716.23
2018-07-05T04:40:08.910Z,100715.20
2018-07-05T04:42:34.950Z,100716.71
2018-07-05T04:45:00.932Z,100723.03
2018-07-05T04:47:26.898Z,100725.84
2018-07-05T04:49:52.858Z,100732.28
2018-07-05T04:52:18.850Z,100726.97
2018-07-05T04:54:44.862Z,100722.17
2018-07-05T04:57:10.852Z,100726.31
2018-07-05T04:59:36.871Z,100726.97
2018-07-05T05:02:02.822Z,100728.62
2018-07-05T05:04:28.798Z,100735.76
2018-07-05T05:06:54.776Z,100736.77
2018-07-05T05:09:20.777Z,100741.92
2018-07-05T05:11:46.742Z,100745.23
2018-07-05T05:14:12.712Z,100747.55
2018-07-05T05:16:38.727Z,100742.74
2018-07-05T05:19:04.696Z,100746.56
2018-07-05T05:21:30.673Z,100748.17
2018-07-05T05:23:56.637Z,100748.02
2018-07-05T05:26:22.614Z,100743.41
2018-07-05T05:28:48.601Z,100749.37
2018-07-05T05:31:14.582Z,100752.54
2018-07-05T05:33:40.556Z,100743.59
2018-07-05T05:36:06.572Z,100744.10
2018-07-05T05:38:32.632Z,100742.27
2018-07-05T05:40:58.599Z,100744.55
2018-07-05T05:43:24.586Z,100747.51
2018-07-05T05:45:50.568Z,100745.52
2018-07-05T05:48:16.670Z,100744.19
2018-07-05T05:50:42.664Z,100739.89
2018-07-05T05:53:08.684Z,100727.59
2018-07-05T05:55:34.751Z,100728.58
2018-07-05T05:58:00.752Z,100734.70
2018-07-05T06:00:26.788Z,100731.23
2018-07-05T06:02:52.909Z,100735.72
2018-07-05T06:05:18.908Z,100738.53
2018-07-05T06:07:44.896Z,100740.36
2018-07-05T06:10:10.944Z,100747.31
2018-07-05T06:12:37.092Z,100750.47
2018-07-05T06:15:03.088Z,100747.62
2018-07-05T06:17:29.131Z,100754.93
2018-07-05T06:19:55.124Z,100750.28
2018-07-05T06:22:21.110Z,100753.75
2018-07-05T06:24:47.074Z,100756.59
2018-07-05T06:27:13.097Z,100761.41
2018-07-05T06:29:39.074Z,100765.34
2018-07-05T06:32:05.056Z,100771.21
2018-07-05T06:34:31.022Z,100772.84
2018-07-05T06:36:57.069Z,100775.19
2018-07-05T06:39:23.053Z,100776.67
2018-07-05T06:41:49.055Z,100771.36
2018-07-05T06:44:15.011Z,100766.32
2018-07-05T06:46:40.999Z,100765.42
2018-07-05T06:49:06.955Z,100758.59
2018-07-05T06:51:32.945Z,100754.93
2018-07-05T06:53:58.923Z,100760.09
2018-07-05T06:56:24.894Z,100757.27
2018-07-05T06:58:50.877Z,100763.75
2018-07-05T07:01:16.907Z,100762.77
2018-07-05T07:03:42.871Z,100765.74
2018-07-05T07:06:08.859Z,100763.91
2018-07-05T07:08:34.848Z,100766.05
2018-07-05T07:11:00.830Z,100769.22
2018-07-05T07:13:26.817Z,100767.73
2018-07-05T07:15:52.770Z,100765.58
2018-07-05T07:18:18.765Z,100771.36
2018-07-05T07:20:44.736Z,100773.82
2018-07-05T07:23:10.695Z,100774.33
2018-07-05T07:25:36.693Z,100780.30
2018-07-05T07:28:02.668Z,100778.66
2018-07-05T07:30:28.797Z,100786.78
2018-07-05T07:32:54.781Z,100784.64
2018-07-05T07:35:20.765Z,100790.61
2018-07-05T07:37:46.742Z,100799.59
2018-07-05T07:40:12.718Z,100803.89
2018-07-05T07:42:38.733Z,100803.58
2018-07-05T07:45:04.702Z,100799.55
2018-07-05T07:47:30.682Z,100799.20
2018-07-05T07:49:56.674Z,100796.59
2018-07-05T07:52:22.645Z,100801.90
2018-07-05T07:54:48.646Z,100798.58
2018-07-05T07:57:14.607Z,100799.24
2018-07-05T07:59:40.576Z,100799.59
2018-07-05T08:02:06.577Z,100799.24
2018-07-05T08:04:32.580Z,100798.89
2018-07-05T08:06:58.574Z,100805.72
2018-07-05T08:09:24.690Z,100804.55
2018-07-05T08:11:50.672Z,100805.18
2018-07-05T08:14:16.632Z,100806.20
2018-07-05T08:16:42.626Z,100804.88
2018-07-05T08:19:08.602Z,100796.23
2018-07-05T08:21:34.598Z,100797.09
2018-07-05T08:24:00.612Z,100791.55
2018-07-05T08:26:26.590Z,100791.09
2018-07-05T08:28:52.574Z,100789.59
2018-07-05T08:31:18.570Z,100789.41
2018-07-05T08:33:44.713Z,100792.56
2018-07-05T08:36:10.675Z,100789.59
2018-07-05T08:38:36.655Z,100792.60
2018-07-05T08:41:02.655Z,100792.92
2018-07-05T08:43:28.643Z,100788.11
2018-07-05T08:45:54.611Z,100784.29
2018-07-05T08:48:20.551Z,100781.98
2018-07-05T08:50:46.525Z,100787.30
2018-07-05T08:53:12.475Z,100784.64
2018-07-05T08:55:38.442Z,100788.27
2018-07-05T08:58:04.425Z,100781.44
2018-07-05T09:00:30.408Z,100786.13
2018-07-05T09:02:56.363Z,100781.54
2018-07-05T09:05:22.428Z,100785.22
2018-07-05T09:07:48.325Z,100780.88
2018-07-05T09:10:14.318Z,100778.78
2018-07-05T09:12:40.280Z,100779.95
2018-07-05T09:15:06.280Z,100785.92
2018-07-05T09:17:32.373Z,100780.92
2018-07-05T09:19:58.311Z,100778.41
2018-07-05T09:22:24.295Z,100778.97
2018-07-05T09:24:50.289Z,100776.63
2018-07-05T09:27:16.292Z,100772.27
2018-07-05T09:29:42.269Z,100773.41
2018-07-05T09:32:08.229Z,100769.78
2018-07-05T09:34:34.231Z,100771.47
2018-07-05T09:37:00.234Z,100767.48
2018-07-05T09:39:26.225Z,100769.09
2018-07-05T09:41:52.226Z,100765.57
2018-07-05T09:44:18.315Z,100770.23
2018-07-05T09:46:44.297Z,100762.77
2018-07-05T09:49:10.266Z,100769.84
2018-07-05T09:51:36.241Z,100766.23
2018-07-05T09:54:02.242Z,100769.59
2018-07-05T09:56:28.227Z,100767.57
2018-07-05T09:58:54.217Z,100763.44
2018-07-05T10:01:20.368Z,100766.09
2018-07-05T10:03:46.350Z,100760.97
2018-07-05T10:06:12.348Z,100764.77
2018-07-05T10:08:38.343Z,100763.27
2018-07-05T10:11:04.301Z,100766.75
2018-07-05T10:13:30.381Z,100765.92
2018-07-05T10:15:56.348Z,100771.08
2018-07-05T10:18:22.323Z,100765.95
2018-07-05T10:20:48.320Z,100771.75
2018-07-05T10:23:14.314Z,100768.38
2018-07-05T10:25:40.347Z,100769.25
2018-07-05T10:28:06.332Z,100766.62
2018-07-05T10:30:32.294Z,100764.28
2018-07-05T10:32:58.415Z,100769.09
2018-07-05T10:35:24.288Z,100766.97
2018-07-05T10:37:50.262Z,100765.63
2018-07-05T10:40:16.238Z,100771.91
2018-07-05T10:42:42.197Z,100773.59
2018-07-05T10:45:08.154Z,100773.41
2018-07-05T10:47:34.160Z,100771.89
2018-07-05T10:50:00.107Z,100772.57
2018-07-05T10:52:26.096Z,100777.88
2018-07-05T10:54:52.212Z,100772.25
2018-07-05T10:57:18.214Z,100773.41
2018-07-05T10:59:44.171Z,100775.70
2018-07-05T11:02:10.396Z,100779.03
2018-07-05T11:04:36.405Z,100770.89
2018-07-05T11:07:02.398Z,100776.91
2018-07-05T11:09:28.383Z,100772.92
2018-07-05T11:11:54.374Z,100776.25
2018-07-05T11:14:20.388Z,100769.40
2018-07-05T11:16:46.323Z,100766.91
2018-07-05T11:19:12.329Z,100775.41
2018-07-05T11:21:38.377Z,100776.24
2018-07-05T11:24:04.363Z,100769.44
2018-07-05T11:26:30.364Z,100768.11
2018-07-05T11:28:56.320Z,100776.27
2018-07-05T11:31:22.296Z,100770.93
2018-07-05T11:33:48.369Z,100763.09
2018-07-05T11:36:14.409Z,100766.93
2018-07-05T11:38:40.373Z,100767.77
2018-07-05T11:41:06.337Z,100763.28
2018-07-05T11:43:32.336Z,100758.45
2018-07-05T11:45:58.341Z,100759.97
2018-07-05T11:48:25.360Z,100758.77
2018-07-05T11:50:51.343Z,100746.62
2018-07-05T11:53:17.417Z,100751.48
2018-07-05T11:55:43.388Z,100746.95
2018-07-05T11:58:09.364Z,100751.16
2018-07-05T12:00:35.328Z,100745.33
2018-07-05T12:03:01.273Z,100753.00
2018-07-05T12:05:27.228Z,100748.97
2018-07-05T12:07:53.250Z,100752.41
2018-07-05T12:10:19.266Z,100751.02
2018-07-05T12:12:45.224Z,100753.00
2018-07-05T12:15:11.253Z,100754.48
2018-07-05T12:17:37.239Z,100753.92
2018-07-05T12:20:03.231Z,100752.41
2018-07-05T12:22:29.203Z,100751.77
2018-07-05T12:24:55.205Z,100757.89
2018-07-05T12:27:21.174Z,100751.25
2018-07-05T12:29:47.154Z,100752.42
2018-07-05T12:32:13.137Z,100752.78
2018-07-05T12:34:39.096Z,100756.80
2018-07-05T12:37:05.068Z,100759.97
2018-07-05T12:39:31.092Z,100761.30
2018-07-05T12:41:56.992Z,100766.52
2018-07-05T12:44:22.956Z,100764.17
2018-07-05T12:46:48.927Z,100759.09
2018-07-05T12:49:14.883Z,100760.86
2018-07-05T12:51:40.878Z,100763.51
2018-07-05T12:54:06.859Z,100766.03
2018-07-05T12:56:32.837Z,100770.23
2018-07-05T12:58:58.805Z,100763.51
2018-07-05T13:01:24.799Z,100764.55
2018-07-05T13:03:50.780Z,100767.71
2018-07-05T13:06:16.738Z,100769.53
2018-07-05T13:08:42.717Z,100769.69
2018-07-05T13:11:08.683Z,100768.53
2018-07-05T13:13:34.663Z,100769.70
2018-07-05T13:16:00.640Z,100767.09
2018-07-05T13:18:26.627Z,100774.80
2018-07-05T13:20:52.617Z,100773.17
2018-07-05T13:23:18.594Z,100769.91
2018-07-05T13:25:44.584Z,100771.75
2018-07-05T13:28:10.548Z,100779.15
2018-07-05T13:30:36.534Z,100768.89
2018-07-05T13:33:02.564Z,100775.08
2018-07-05T13:35:28.476Z,100773.45
2018-07-05T13:37:54.566Z,100774.70
2018-07-05T13:40:20.525Z,100773.55
2018-07-05T13:42:46.487Z,100780.13
2018-07-05T13:45:12.500Z,100783.80
2018-07-05T13:47:38.433Z,100781.75
2018-07-05T13:50:04.413Z,100784.61
2018-07-05T13:52:30.372Z,100789.84
2018-07-05T13:54:56.372Z,100795.03
2018-07-05T13:57:22.366Z,100792.28
2018-07-05T13:59:48.364Z,100795.09
2018-07-05T14:02:14.393Z,100794.88
2018-07-05T14:04:40.354Z,100793.56
2018-07-05T14:07:06.313Z,100790.08
2018-07-05T14:09:32.277Z,100794.52
2018-07-05T14:11:59.349Z,100792.91
2018-07-05T14:14:25.602Z,100793.31
2018-07-05T14:16:51.552Z,100789.72
2018-07-05T14:19:17.530Z,100783.60
2018-07-05T14:21:43.520Z,100780.11
2018-07-05T14:24:09.598Z,100781.80
2018-07-05T14:26:35.625Z,100776.86
2018-07-05T14:29:01.863Z,100778.48
2018-07-05T14:31:28.172Z,100781.50
2018-07-05T14:33:54.171Z,100789.47
2018-07-05T14:36:20.251Z,100784.86
2018-07-05T14:38:46.295Z,100784.08
2018-07-05T14:41:12.227Z,100780.80
2018-07-05T14:43:38.243Z,100780.80
2018-07-05T14:46:04.214Z,100781.29
2018-07-05T14:48:30.281Z,100782.05
2018-07-05T14:50:56.521Z,100785.84
2018-07-05T14:53:22.517Z,100783.30
2018-07-05T14:55:48.596Z,100785.34
2018-07-05T14:58:14.602Z,100792.46
2018-07-05T15:00:40.628Z,100795.48
2018-07-05T15:03:06.677Z,100791.58
2018-07-05T15:05:32.712Z,100791.92
2018-07-05T15:07:58.801Z,100795.23
2018-07-05T15:10:24.801Z,100797.75
2018-07-05T15:12:50.789Z,100792.97
2018-07-05T15:15:16.791Z,100785.27
2018-07-05T15:17:42.872Z,100797.91
2018-07-05T15:20:08.854Z,100788.09
2018-07-05T15:22:34.919Z,100786.08
2018-07-05T15:25:00.919Z,100787.64
2018-07-05T15:27:26.972Z,100788.67
2018-07-05T15:29:52.947Z,100793.80
2018-07-05T15:32:18.920Z,100790.67
2018-07-05T15:34:44.884Z,100785.00
2018-07-05T15:37:11.161Z,100792.53
2018-07-05T15:39:37.211Z,100792.06
2018-07-05T15:42:03.177Z,100787.42
2018-07-05T15:44:29.148Z,100789.77
2018-07-05T15:46:55.123Z,100786.92
2018-07-05T15:49:21.139Z,100786.08
2018-07-05T15:51:47.248Z,100782.05
2018-07-05T15:54:13.242Z,100785.95
2018-07-05T15:56:39.309Z,100781.14
2018-07-05T15:59:05.289Z,100781.64
2018-07-05T16:01:31.527Z,100779.37
2018-07-05T16:03:58.660Z,100771.84
2018-07-05T16:06:24.698Z,100781.44
2018-07-05T16:08:50.701Z,100767.98
2018-07-05T16:11:16.691Z,100767.12
2018-07-05T16:13:42.683Z,100762.31
2018-07-05T16:16:09.635Z,100771.55
2018-07-05T16:18:35.608Z,100767.27
2018-07-05T16:21:01.594Z,100764.78
2018-07-05T16:23:27.563Z,100764.83
2018-07-05T16:25:53.579Z,100768.67
2018-07-05T16:28:19.560Z,100768.98
2018-07-05T16:30:45.554Z,100766.16
2018-07-05T16:33:11.517Z,100761.66
2018-07-05T16:35:37.545Z,100763.58
2018-07-05T16:38:03.536Z,100754.88
2018-07-05T16:40:29.508Z,100752.56
2018-07-05T16:42:55.491Z,100760.17
2018-07-05T16:45:21.485Z,100760.69
2018-07-05T16:47:47.514Z,100761.20
2018-07-05T16:50:13.496Z,100761.72
2018-07-05T16:52:39.474Z,100761.15
2018-07-05T16:55:05.452Z,100754.37
2018-07-05T16:57:31.428Z,100759.88
2018-07-05T16:59:57.415Z,100759.67
2018-07-05T17:02:23.453Z,100759.53
2018-07-05T17:04:49.440Z,100755.55
2018-07-05T17:07:15.429Z,100756.86
2018-07-05T17:09:41.448Z,100755.55
2018-07-05T17:12:07.422Z,100759.36
2018-07-05T17:14:33.437Z,100761.45
2018-07-05T17:16:59.427Z,100753.70
2018-07-05T17:19:25.436Z,100753.16
2018-07-05T17:21:51.389Z,100762.16
2018-07-05T17:24:17.394Z,100762.61
2018-07-05T17:26:43.374Z,100761.20
2018-07-05T17:29:09.349Z,100767.18
2018-07-05T17:31:35.352Z,100759.88
2018-07-05T17:34:01.315Z,100768.73
2018-07-05T17:36:27.270Z,100767.14
2018-07-05T17:38:53.249Z,100771.27
2018-07-05T17:41:19.298Z,100773.97
2018-07-05T17:43:45.266Z,100772.49
2018-07-05T17:46:11.327Z,100775.96
2018-07-05T17:48:37.252Z,100775.02
2018-07-05T17:51:03.250Z,100778.48
2018-07-05T17:53:29.234Z,100775.17
2018-07-05T17:55:55.244Z,100777.17
2018-07-05T17:58:21.241Z,100773.31
2018-07-05T18:00:47.257Z,100776.50
2018-07-05T18:03:13.242Z,100777.16
2018-07-05T18:05:39.238Z,100775.02
2018-07-05T18:08:05.236Z,100777.31
2018-07-05T18:10:31.209Z,100774.34
2018-07-05T18:12:57.205Z,100777.83
2018-07-05T18:15:23.177Z,100785.44
2018-07-05T18:17:49.160Z,100783.95
2018-07-05T18:20:15.121Z,100788.46
2018-07-05T18:22:41.138Z,100785.13
2018-07-05T18:25:07.140Z,100792.42
2018-07-05T18:27:33.116Z,100791.12
2018-07-05T18:29:59.111Z,100789.17
2018-07-05T18:32:25.195Z,100789.33
2018-07-05T18:34:51.201Z,100788.98
2018-07-05T18:37:17.173Z,100793.63
2018-07-05T18:39:43.153Z,100791.47
2018-07-05T18:42:09.112Z,100800.86
2018-07-05T18:44:35.072Z,100803.75
2018-07-05T18:47:01.744Z,100803.75
2018-07-05T18:49:27.712Z,100803.95
2018-07-05T18:51:53.740Z,100800.48
2018-07-05T18:54:19.693Z,100807.11
2018-07-05T18:56:45.680Z,100809.77
2018-07-05T18:59:11.671Z,100807.12
2018-07-05T19:01:37.653Z,100813.09
2018-07-05T19:04:03.626Z,100819.53
2018-07-05T19:06:29.608Z,100823.37
2018-07-05T19:08:55.604Z,100822.03
2018-07-05T19:11:21.618Z,100834.30
2018-07-05T19:13:47.605Z,100831.84
2018-07-05T19:16:13.710Z,100832.05
2018-07-05T19:18:39.661Z,100833.17
2018-07-05T19:21:05.692Z,100842.80
2018-07-05T19:23:31.657Z,100842.98
2018-07-05T19:25:57.742Z,100838.67
2018-07-05T19:28:23.746Z,100843.30
2018-07-05T19:30:49.777Z,100841.97
2018-07-05T19:33:15.797Z,100846.45
2018-07-05T19:35:41.827Z,100851.27
2018-07-05T19:38:07.807Z,100850.59
2018-07-05T19:40:33.829Z,100853.25
2018-07-05T19:42:59.820Z,100848.95
2018-07-05T19:45:25.804Z,100862.59
2018-07-05T19:47:51.970Z,100869.70
2018-07-05T19:50:17.984Z,100872.55
2018-07-05T19:52:44.042Z,100878.84
2018-07-05T19:55:10.052Z,100882.33
2018-07-05T19:57:36.017Z,100886.66
2018-07-05T20:00:02.194Z,100896.94
2018-07-05T20:02:28.263Z,100889.34
2018-07-05T20:04:54.521Z,100895.41
2018-07-05T20:07:20.561Z,100895.09
2018-07-05T20:09:46.537Z,100894.08
2018-07-05T20:12:12.526Z,100900.73
2018-07-05T20:14:38.524Z,100906.05
2018-07-05T20:17:04.482Z,100906.70
2018-07-05T20:19:30.462Z,100910.84
2018-07-05T20:21:56.473Z,100909.56
2018-07-05T20:24:22.476Z,100909.84
2018-07-05T20:26:48.460Z,100919.02
2018-07-05T20:29:14.482Z,100916.86
2018-07-05T20:31:40.457Z,100917.17
2018-07-05T20:34:06.436Z,100924.33
2018-07-05T20:36:32.449Z,100931.63
2018-07-05T20:38:58.447Z,100937.27
2018-07-05T20:41:24.410Z,100937.62
2018-07-05T20:43:50.449Z,100936.44
2018-07-05T20:46:16.418Z,100940.78
2018-07-05T20:48:42.393Z,100949.38
2018-07-05T20:51:08.364Z,100953.40
2018-07-05T20:53:34.368Z,100954.89
2018-07-05T20:56:00.356Z,100956.53
2018-07-05T20:58:26.425Z,100961.72
2018-07-05T21:00:52.408Z,100969.84
2018-07-05T21:03:18.388Z,100964.69
2018-07-05T21:05:44.397Z,100970.83
2018-07-05T21:08:10.384Z,100978.83
2018-07-05T21:10:36.360Z,100982.81
2018-07-05T21:13:02.370Z,100989.27
2018-07-05T21:15:28.383Z,100993.77
2018-07-05T21:17:54.373Z,100995.76
2018-07-05T21:20:20.343Z,101001.89
2018-07-05T21:22:46.335Z,101001.57
2018-07-05T21:25:12.299Z,101004.55
2018-07-05T21:27:38.256Z,101004.73
2018-07-05T21:30:04.241Z,101002.39
2018-07-05T21:32:30.211Z,101003.72
2018-07-05T21:34:56.232Z,101006.72
2018-07-05T21:37:22.208Z,101007.34
2018-07-05T21:39:48.188Z,101015.83
2018-07-05T21:42:14.187Z,101019.34
2018-07-05T21:44:40.145Z,101016.17
2018-07-05T21:47:06.161Z,101017.63
2018-07-05T21:49:32.130Z,101017.30
2018-07-05T21:51:58.127Z,101022.00
2018-07-05T21:54:24.116Z,101028.64
2018-07-05T21:56:50.111Z,101020.63
2018-07-05T21:59:16.081Z,101020.31
2018-07-05T22:01:42.155Z,101024.27
2018-07-05T22:04:08.149Z,101023.33
2018-07-05T22:06:34.127Z,101027.63
2018-07-05T22:09:00.146Z,101028.62
2018-07-05T22:11:26.162Z,101026.95
2018-07-05T22:13:52.192Z,101027.31
2018-07-05T22:16:18.156Z,101034.09
2018-07-05T22:18:45.180Z,101032.12
2018-07-05T22:21:11.187Z,101032.12
2018-07-05T22:23:37.229Z,101041.92
2018-07-05T22:26:03.427Z,101043.87
2018-07-05T22:28:29.470Z,101044.72
2018-07-05T22:30:55.534Z,101049.67
2018-07-05T22:33:21.491Z,101051.35
2018-07-05T22:35:47.456Z,101055.18
2018-07-05T22:38:13.738Z,101061.47
2018-07-05T22:40:39.752Z,101060.80
2018-07-05T22:43:05.802Z,101063.95
2018-07-05T22:45:31.799Z,101058.16
2018-07-05T22:47:57.833Z,101067.61
2018-07-05T22:50:23.812Z,101068.11
2018-07-05T22:52:49.845Z,101066.61
2018-07-05T22:55:15.927Z,101070.77
2018-07-05T22:57:41.942Z,101070.92
2018-07-05T23:00:07.973Z,101076.41
2018-07-05T23:02:34.026Z,101071.62
2018-07-05T23:04:59.989Z,101077.08
2018-07-05T23:07:25.960Z,101081.72
2018-07-05T23:09:52.644Z,101086.23
2018-07-05T23:12:18.611Z,101081.41
2018-07-05T23:14:44.570Z,101082.40
2018-07-05T23:17:10.537Z,101086.04
2018-07-05T23:19:36.579Z,101092.70
2018-07-05T23:22:02.533Z,101095.02
2018-07-05T23:24:28.527Z,101095.67
2018-07-05T23:26:54.499Z,101098.00
2018-07-05T23:29:20.513Z,101099.66
2018-07-05T23:31:46.768Z,101096.33
2018-07-05T23:34:12.752Z,101100.66
2018-07-05T23:36:38.764Z,101108.95
2018-07-05T23:39:04.755Z,101113.08
2018-07-05T23:41:30.727Z,101109.93
2018-07-05T23:43:56.710Z,101110.44
2018-07-05T23:46:22.693Z,101116.06
2018-07-05T23:48:48.665Z,101110.09
2018-07-05T23:51:14.644Z,101113.75
2018-07-05T23:53:40.604Z,101112.61
2018-07-05T23:56:06.567Z,101115.77
2018-07-05T23:58:32.652Z,101111.94
